createdAt,value
2018-05-21T00:02:20.919Z,11.90
2018-05-21T00:04:47.211Z,11.80
2018-05-21T00:07:13.706Z,11.70
2018-05-21T00:09:39.935Z,11.70
2018-05-21T00:12:06.194Z,11.70
2018-05-21T00:14:32.611Z,11.70
2018-05-21T00:16:58.820Z,11.70
2018-05-21T00:19:25.015Z,11.70
2018-05-21T00:21:51.295Z,11.70
2018-05-21T00:24:17.495Z,11.60
2018-05-21T00:26:43.715Z,11.60
2018-05-21T00:29:09.910Z,11.70
2018-05-21T00:31:36.928Z,11.60
2018-05-21T00:34:03.183Z,11.60
2018-05-21T00:36:29.380Z,11.60
2018-05-21T00:38:55.599Z,11.70
2018-05-21T00:41:22.147Z,11.70
2018-05-21T00:43:48.343Z,11.60
2018-05-21T00:46:14.539Z,11.60
2018-05-21T00:48:41.499Z,11.60
2018-05-21T00:51:08.430Z,11.50
2018-05-21T00:53:35.397Z,11.50
2018-05-21T00:56:01.593Z,11.50
2018-05-21T00:58:27.819Z,11.50
2018-05-21T01:00:54.335Z,11.40
2018-05-21T01:03:20.601Z,11.40
2018-05-21T01:05:47.566Z,11.40
2018-05-21T01:08:13.824Z,11.30
2018-05-21T01:10:40.691Z,11.30
2018-05-21T01:13:07.873Z,11.30
2018-05-21T01:15:34.158Z,11.30
2018-05-21T01:18:01.040Z,11.30
2018-05-21T01:20:27.990Z,11.30
2018-05-21T01:22:54.206Z,11.30
2018-05-21T01:25:20.430Z,11.30
2018-05-21T01:27:46.627Z,11.30
2018-05-21T01:30:12.855Z,11.30
2018-05-21T01:32:39.051Z,11.30
2018-05-21T01:35:06.011Z,11.20
2018-05-21T01:37:32.207Z,11.20
2018-05-21T01:39:58.430Z,11.20
2018-05-21T01:42:24.632Z,11.20
2018-05-21T01:44:50.858Z,11.10
2018-05-21T01:47:17.077Z,11.10
2018-05-21T01:49:43.289Z,11.10
2018-05-21T01:52:09.485Z,11.10
2018-05-21T01:54:35.807Z,11.00
2018-05-21T01:57:01.999Z,11.00
2018-05-21T01:59:28.219Z,10.90
2018-05-21T02:01:54.415Z,10.80
2018-05-21T02:04:21.516Z,10.70
2018-05-21T02:06:47.730Z,10.70
2018-05-21T02:09:13.930Z,10.70
2018-05-21T02:11:40.142Z,10.70
2018-05-21T02:14:07.146Z,10.60
2018-05-21T02:16:33.366Z,10.60
2018-05-21T02:18:59.559Z,10.60
2018-05-21T02:21:26.512Z,10.50
2018-05-21T02:23:52.722Z,10.50
2018-05-21T02:26:19.658Z,10.30
2018-05-21T02:28:46.624Z,10.20
2018-05-21T02:31:20.563Z,10.20
2018-05-21T02:33:46.789Z,10.20
2018-05-21T02:36:12.991Z,10.20
2018-05-21T02:38:39.207Z,10.20
2018-05-21T02:41:06.144Z,10.10
2018-05-21T02:43:33.109Z,10.10
2018-05-21T02:46:00.048Z,10.00
2018-05-21T02:48:27.071Z,9.90
2018-05-21T02:50:53.284Z,9.90
2018-05-21T02:53:19.498Z,9.90
2018-05-21T02:55:45.732Z,9.90
2018-05-21T02:58:11.947Z,9.80
2018-05-21T03:00:38.135Z,9.80
2018-05-21T03:03:05.091Z,9.70
2018-05-21T03:05:32.083Z,9.70
2018-05-21T03:07:58.327Z,9.70
2018-05-21T03:10:24.518Z,9.70
2018-05-21T03:12:50.735Z,9.80
2018-05-21T03:15:16.947Z,9.80
2018-05-21T03:17:43.905Z,9.80
2018-05-21T03:20:10.099Z,9.80
2018-05-21T03:22:36.318Z,9.80
2018-05-21T03:25:02.516Z,9.80
2018-05-21T03:27:28.736Z,9.80
2018-05-21T03:29:54.922Z,9.90
2018-05-21T03:32:21.899Z,9.90
2018-05-21T03:34:48.096Z,9.90
2018-05-21T03:37:14.310Z,10.00
2018-05-21T03:39:40.503Z,10.00
2018-05-21T03:42:06.723Z,10.00
2018-05-21T03:44:32.915Z,10.10
2018-05-21T03:46:59.874Z,10.10
2018-05-21T03:49:26.099Z,10.10
2018-05-21T03:51:53.055Z,10.20
2018-05-21T03:54:19.991Z,10.30
2018-05-21T03:56:46.948Z,10.30
2018-05-21T04:02:25.399Z,10.30
2018-05-21T04:04:51.591Z,10.40
2018-05-21T04:07:18.583Z,10.40
2018-05-21T04:09:44.775Z,10.40
2018-05-21T04:12:11.739Z,10.50
2018-05-21T04:14:37.930Z,10.40
2018-05-21T04:17:04.214Z,10.50
2018-05-21T04:19:30.475Z,10.50
2018-05-21T04:21:56.695Z,10.60
2018-05-21T04:24:22.899Z,10.60
2018-05-21T04:26:49.157Z,10.70
2018-05-21T04:29:15.360Z,10.80
2018-05-21T04:31:41.603Z,10.80
2018-05-21T04:34:07.795Z,10.90
2018-05-21T04:36:34.895Z,11.00
2018-05-21T04:39:01.098Z,11.00
2018-05-21T04:41:27.286Z,11.10
2018-05-21T04:43:54.255Z,11.20
2018-05-21T04:46:20.511Z,11.20
2018-05-21T04:48:46.730Z,11.30
2018-05-21T04:51:12.936Z,11.40
2018-05-21T04:53:39.565Z,11.50
2018-05-21T04:56:05.724Z,11.50
2018-05-21T04:58:31.943Z,11.60
2018-05-21T05:00:58.144Z,11.60
2018-05-21T05:03:25.107Z,11.80
2018-05-21T05:05:51.331Z,11.80
2018-05-21T05:08:18.319Z,12.00
2018-05-21T05:10:44.507Z,12.00
2018-05-21T05:13:11.458Z,12.20
2018-05-21T05:15:37.656Z,12.20
2018-05-21T05:18:03.892Z,12.30
2018-05-21T05:20:30.822Z,12.50
2018-05-21T05:22:57.039Z,12.50
2018-05-21T05:25:23.234Z,12.50
2018-05-21T05:27:49.455Z,12.60
2018-05-21T05:30:15.651Z,12.70
2018-05-21T05:32:42.619Z,13.00
2018-05-21T05:35:08.814Z,13.00
2018-05-21T05:37:35.027Z,13.00
2018-05-21T05:40:01.221Z,13.20
2018-05-21T05:42:27.454Z,13.20
2018-05-21T05:44:53.731Z,13.30
2018-05-21T05:47:19.889Z,13.50
2018-05-21T05:49:46.135Z,13.50
2018-05-21T05:52:12.326Z,13.50
2018-05-21T05:54:39.283Z,13.90
2018-05-21T05:57:06.223Z,14.00
2018-05-21T05:59:33.187Z,14.20
2018-05-21T06:01:59.388Z,14.10
2018-05-21T06:04:27.158Z,14.50
2018-05-21T06:06:54.122Z,14.60
2018-05-21T06:09:20.383Z,14.60
2018-05-21T06:11:46.647Z,14.90
2018-05-21T06:14:12.878Z,15.20
2018-05-21T06:16:39.071Z,15.40
2018-05-21T06:19:05.357Z,15.80
2018-05-21T06:21:32.294Z,16.50
2018-05-21T06:23:58.496Z,16.50
2018-05-21T06:26:24.717Z,16.60
2018-05-21T06:28:50.951Z,17.20
2018-05-21T06:31:17.150Z,17.70
2018-05-21T06:33:43.350Z,18.40
2018-05-21T06:36:10.310Z,19.60
2018-05-21T06:38:36.511Z,19.60
2018-05-21T06:41:02.878Z,20.00
2018-05-21T06:43:29.078Z,20.30
2018-05-21T06:45:56.038Z,20.60
2018-05-21T06:48:22.983Z,21.20
2018-05-21T06:50:49.946Z,21.40
2018-05-21T06:53:16.152Z,21.40
2018-05-21T06:55:43.111Z,21.40
2018-05-21T06:58:10.051Z,21.40
2018-05-21T07:00:37.019Z,21.60
2018-05-21T07:03:03.233Z,21.70
2018-05-21T07:05:29.553Z,21.70
2018-05-21T07:07:56.497Z,22.10
2018-05-21T07:10:22.740Z,22.10
2018-05-21T07:12:48.944Z,21.70
2018-05-21T07:15:15.942Z,21.90
2018-05-21T07:17:42.136Z,21.90
2018-05-21T07:20:09.075Z,22.90
2018-05-21T07:22:36.035Z,23.50
2018-05-21T07:25:02.238Z,23.40
2018-05-21T07:27:28.467Z,23.70
2018-05-21T07:29:55.438Z,24.40
2018-05-21T07:32:22.371Z,24.70
2018-05-21T07:34:49.331Z,25.20
2018-05-21T07:37:15.527Z,25.20
2018-05-21T07:39:41.750Z,25.70
2018-05-21T07:42:07.942Z,26.00
2018-05-21T07:44:34.191Z,25.90
2018-05-21T07:47:00.399Z,26.20
2018-05-21T07:49:26.619Z,26.40
2018-05-21T07:51:52.820Z,26.70
2018-05-21T07:54:19.831Z,27.10
2018-05-21T07:56:46.267Z,27.10
2018-05-21T07:59:15.090Z,27.20
2018-05-21T08:01:42.103Z,27.20
2018-05-21T08:04:08.423Z,27.20
2018-05-21T08:06:38.370Z,26.90
2018-05-21T08:09:05.595Z,27.20
2018-05-21T08:11:31.807Z,26.70
2018-05-21T08:13:58.031Z,27.00
2018-05-21T08:16:24.219Z,26.50
2018-05-21T08:18:51.179Z,25.70
2018-05-21T08:21:17.375Z,25.70
2018-05-21T08:23:45.043Z,26.90
2018-05-21T08:26:11.259Z,26.90
2018-05-21T08:28:37.583Z,27.70
2018-05-21T08:31:03.827Z,27.50
2018-05-21T08:33:30.322Z,27.90
2018-05-21T08:35:56.542Z,28.70
2018-05-21T08:38:22.735Z,28.50
2018-05-21T08:40:49.703Z,28.00
2018-05-21T08:43:15.898Z,27.90
2018-05-21T08:45:42.123Z,28.70
2018-05-21T08:48:08.315Z,29.20
2018-05-21T08:50:34.530Z,28.70
2018-05-21T08:53:00.722Z,28.10
2018-05-21T08:55:27.687Z,28.30
2018-05-21T08:57:53.899Z,28.30
2018-05-21T09:00:20.857Z,30.10
2018-05-21T09:02:47.058Z,30.00
2018-05-21T09:05:13.578Z,29.40
2018-05-21T09:07:39.823Z,29.30
2018-05-21T09:10:06.854Z,28.80
2018-05-21T09:12:33.176Z,28.80
2018-05-21T09:14:59.343Z,29.00
2018-05-21T09:17:26.339Z,30.60
2018-05-21T09:19:52.591Z,30.50
2018-05-21T09:22:18.778Z,30.40
2018-05-21T09:24:45.005Z,30.40
2018-05-21T09:27:11.208Z,29.80
2018-05-21T09:29:38.194Z,30.40
2018-05-21T09:32:04.387Z,30.40
2018-05-21T09:34:31.318Z,31.30
2018-05-21T09:36:57.538Z,31.30
2018-05-21T09:39:23.767Z,31.40
2018-05-21T09:41:49.995Z,31.90
2018-05-21T09:44:16.191Z,31.80
2018-05-21T09:46:42.415Z,31.20
2018-05-21T09:49:08.607Z,31.00
2018-05-21T09:51:35.571Z,31.10
2018-05-21T09:54:01.847Z,31.00
2018-05-21T09:56:28.079Z,30.50
2018-05-21T09:58:54.277Z,30.90
2018-05-21T10:01:20.478Z,31.40
2018-05-21T10:03:46.702Z,31.90
2018-05-21T10:06:13.667Z,30.70
2018-05-21T10:08:39.882Z,30.70
2018-05-21T10:11:06.077Z,30.80
2018-05-21T10:13:32.301Z,30.50
2018-05-21T10:15:58.503Z,31.10
2018-05-21T10:18:24.723Z,31.00
2018-05-21T10:20:50.911Z,31.20
2018-05-21T10:23:24.871Z,30.30
2018-05-21T10:25:51.094Z,30.20
2018-05-21T10:28:17.315Z,29.70
2018-05-21T10:30:43.506Z,29.80
2018-05-21T10:33:10.471Z,31.90
2018-05-21T10:35:36.798Z,31.90
2018-05-21T10:38:03.055Z,32.70
2018-05-21T10:40:29.254Z,32.40
2018-05-21T10:42:55.483Z,32.10
2018-05-21T10:45:21.684Z,31.10
2018-05-21T10:47:48.642Z,31.60
2018-05-21T10:50:15.581Z,31.60
2018-05-21T10:52:42.551Z,32.40
2018-05-21T10:55:08.750Z,32.40
2018-05-21T10:57:35.013Z,32.70
2018-05-21T11:00:01.952Z,32.20
2018-05-21T11:02:28.291Z,32.10
2018-05-21T11:04:54.490Z,32.40
2018-05-21T11:07:20.780Z,32.70
2018-05-21T11:09:46.979Z,32.70
2018-05-21T11:12:13.210Z,31.90
2018-05-21T11:14:39.424Z,31.10
2018-05-21T11:17:06.391Z,32.60
2018-05-21T11:19:32.588Z,32.50
2018-05-21T11:21:59.566Z,32.60
2018-05-21T11:24:25.771Z,32.50
2018-05-21T11:26:52.726Z,32.20
2018-05-21T11:29:18.978Z,32.10
2018-05-21T11:31:45.540Z,31.90
2018-05-21T11:34:12.532Z,31.40
2018-05-21T11:36:39.497Z,31.90
2018-05-21T11:39:06.461Z,32.60
2018-05-21T11:41:32.678Z,32.60
2018-05-21T11:43:58.938Z,33.00
2018-05-21T11:46:25.182Z,32.60
2018-05-21T11:48:51.378Z,32.60
2018-05-21T11:51:17.599Z,33.10
2018-05-21T11:53:43.803Z,33.50
2018-05-21T11:56:10.035Z,33.70
2018-05-21T11:58:36.231Z,33.70
2018-05-21T12:01:02.479Z,33.20
2018-05-21T12:03:29.423Z,33.70
2018-05-21T12:05:56.422Z,33.90
2018-05-21T12:08:22.611Z,33.90
2018-05-21T12:10:48.845Z,33.50
2018-05-21T12:13:15.065Z,34.00
2018-05-21T12:15:41.287Z,33.60
2018-05-21T12:18:08.224Z,32.40
2018-05-21T12:20:35.485Z,32.50
2018-05-21T12:23:02.450Z,32.00
2018-05-21T12:25:28.667Z,31.90
2018-05-21T12:27:55.626Z,31.00
2018-05-21T12:30:21.816Z,31.00
2018-05-21T12:32:48.058Z,30.70
2018-05-21T12:35:14.995Z,32.90
2018-05-21T12:37:41.955Z,33.20
2018-05-21T12:40:08.900Z,32.70
2018-05-21T12:42:35.866Z,32.20
2018-05-21T12:45:02.071Z,32.20
2018-05-21T12:47:29.034Z,33.20
2018-05-21T12:49:55.226Z,33.10
2018-05-21T12:52:21.527Z,32.70
2018-05-21T12:54:47.742Z,32.80
2018-05-21T12:57:13.979Z,33.30
2018-05-21T12:59:40.170Z,33.10
2018-05-21T13:02:07.135Z,31.60
2018-05-21T13:04:38.849Z,31.60
2018-05-21T13:07:07.072Z,31.60
2018-05-21T13:09:33.275Z,31.50
2018-05-21T13:11:59.527Z,31.50
2018-05-21T13:14:25.847Z,31.40
2018-05-21T13:16:52.066Z,31.60
2018-05-21T13:19:19.013Z,32.60
2018-05-21T13:21:46.040Z,32.10
2018-05-21T13:24:12.610Z,32.10
2018-05-21T13:26:39.626Z,30.90
2018-05-21T13:29:06.579Z,29.70
2018-05-21T13:31:33.600Z,30.30
2018-05-21T13:33:59.823Z,30.30
2018-05-21T13:36:26.027Z,30.40
2018-05-21T13:38:52.291Z,30.60
2018-05-21T13:41:18.491Z,31.10
2018-05-21T13:43:44.711Z,31.40
2018-05-21T13:46:10.907Z,31.50
2018-05-21T13:48:37.866Z,31.80
2018-05-21T13:51:04.067Z,31.70
2018-05-21T13:53:30.299Z,32.20
2018-05-21T13:55:57.294Z,31.80
2018-05-21T13:58:23.543Z,31.80
2018-05-21T14:00:49.802Z,32.00
2018-05-21T14:03:16.762Z,32.10
2018-05-21T14:05:43.799Z,31.00
2018-05-21T14:08:10.781Z,31.50
2018-05-21T14:10:36.969Z,31.50
2018-05-21T14:13:04.091Z,31.40
2018-05-21T14:15:30.480Z,31.40
2018-05-21T14:17:56.675Z,31.10
2018-05-21T14:20:22.902Z,30.80
2018-05-21T14:22:49.393Z,31.10
2018-05-21T14:25:15.670Z,31.20
2018-05-21T14:27:41.868Z,31.80
2018-05-21T14:30:08.087Z,31.80
2018-05-21T14:32:34.290Z,31.80
2018-05-21T14:35:00.506Z,31.80
2018-05-21T14:37:27.446Z,31.10
2018-05-21T14:39:54.415Z,31.50
2018-05-21T14:42:20.623Z,31.50
2018-05-21T14:44:47.587Z,31.00
2018-05-21T14:47:13.783Z,31.00
2018-05-21T14:49:40.020Z,29.60
2018-05-21T14:52:06.955Z,28.50
2018-05-21T14:54:33.217Z,28.40
2018-05-21T14:56:59.558Z,28.50
2018-05-21T14:59:25.770Z,29.00
2018-05-21T15:01:52.358Z,29.10
2018-05-21T15:04:18.619Z,29.20
2018-05-21T15:06:45.676Z,29.90
2018-05-21T15:09:12.610Z,30.40
2018-05-21T15:11:39.575Z,30.20
2018-05-21T15:14:05.791Z,30.10
2018-05-21T15:16:32.755Z,29.60
2018-05-21T15:19:00.261Z,29.60
2018-05-21T15:21:26.646Z,29.10
2018-05-21T15:23:52.847Z,28.00
2018-05-21T15:26:19.071Z,28.30
2018-05-21T15:28:45.277Z,28.20
2018-05-21T15:31:11.500Z,28.30
2018-05-21T15:33:37.697Z,28.60
2018-05-21T15:36:04.082Z,28.60
2018-05-21T15:38:30.946Z,28.20
2018-05-21T15:40:57.915Z,27.80
2018-05-21T15:43:24.151Z,27.80
2018-05-21T15:45:50.347Z,27.70
2018-05-21T15:48:17.308Z,27.40
2018-05-21T15:50:44.441Z,27.80
2018-05-21T15:53:11.394Z,27.80
2018-05-21T15:55:38.374Z,27.70
2018-05-21T15:58:05.191Z,27.70
2018-05-21T16:00:31.915Z,27.90
2018-05-21T16:02:58.138Z,27.30
2018-05-21T16:05:25.136Z,26.40
2018-05-21T16:07:51.360Z,26.40
2018-05-21T16:10:17.631Z,26.30
2018-05-21T16:12:43.852Z,26.50
2018-05-21T16:15:10.047Z,26.70
2018-05-21T16:17:36.282Z,26.50
2018-05-21T16:20:02.499Z,26.10
2018-05-21T16:22:28.738Z,25.60
2018-05-21T16:24:54.936Z,25.00
2018-05-21T16:27:22.123Z,24.10
2018-05-21T16:29:48.351Z,24.00
2018-05-21T16:32:14.542Z,23.50
2018-05-21T16:34:41.502Z,22.70
2018-05-21T16:37:07.697Z,22.60
2018-05-21T16:39:33.935Z,22.50
2018-05-21T16:42:00.136Z,22.40
2018-05-21T16:44:26.350Z,22.10
2018-05-21T16:46:52.615Z,22.00
2018-05-21T16:49:18.838Z,21.90
2018-05-21T16:51:45.044Z,21.90
2018-05-21T16:54:11.562Z,21.90
2018-05-21T16:56:37.760Z,21.80
2018-05-21T16:59:04.727Z,21.70
2018-05-21T17:01:30.923Z,21.70
2018-05-21T17:03:57.175Z,21.80
2018-05-21T17:06:23.387Z,21.70
2018-05-21T17:08:50.354Z,21.60
2018-05-21T17:11:16.551Z,21.60
2018-05-21T17:13:43.510Z,21.50
2018-05-21T17:16:10.444Z,21.40
2018-05-21T17:18:37.418Z,21.40
2018-05-21T17:21:03.611Z,21.30
2018-05-21T17:23:29.829Z,21.30
2018-05-21T17:25:56.027Z,21.30
2018-05-21T17:28:22.255Z,21.10
2018-05-21T17:30:48.483Z,21.00
2018-05-21T17:33:14.711Z,21.00
2018-05-21T17:35:41.033Z,20.90
2018-05-21T17:38:07.931Z,20.80
2018-05-21T17:40:34.163Z,20.70
2018-05-21T17:43:00.354Z,20.60
2018-05-21T17:45:26.576Z,20.60
2018-05-21T17:47:52.799Z,20.50
2018-05-21T17:50:19.011Z,20.30
2018-05-21T17:52:45.226Z,20.30
2018-05-21T17:55:12.186Z,20.20
2018-05-21T17:57:38.447Z,20.10
2018-05-21T18:00:04.674Z,20.10
2018-05-21T18:02:30.887Z,19.90
2018-05-21T18:04:57.102Z,19.80
2018-05-21T18:07:23.343Z,19.70
2018-05-21T18:09:49.574Z,19.60
2018-05-21T18:12:15.775Z,19.60
2018-05-21T18:14:42.051Z,19.50
2018-05-21T18:17:08.227Z,19.40
2018-05-21T18:19:35.200Z,19.30
2018-05-21T18:22:01.459Z,19.30
2018-05-21T18:24:27.689Z,19.20
2018-05-21T18:26:53.883Z,19.10
2018-05-21T18:29:20.250Z,19.00
2018-05-21T18:31:46.503Z,18.90
2018-05-21T18:34:12.698Z,18.80
2018-05-21T18:36:38.928Z,18.70
2018-05-21T18:39:05.147Z,18.60
2018-05-21T18:41:31.378Z,18.50
2018-05-21T18:43:57.583Z,18.30
2018-05-21T18:46:23.802Z,18.20
2018-05-21T18:48:49.998Z,18.00
2018-05-21T18:51:16.214Z,17.80
2018-05-21T18:53:42.420Z,17.70
2018-05-21T18:56:08.638Z,17.60
2018-05-21T18:58:34.840Z,17.50
2018-05-21T19:01:01.103Z,17.40
2018-05-21T19:03:27.306Z,17.30
2018-05-21T19:05:53.598Z,17.10
2018-05-21T19:08:19.792Z,17.00
2018-05-21T19:10:53.122Z,16.90
2018-05-21T19:13:19.347Z,16.80
2018-05-21T19:15:45.542Z,16.70
2018-05-21T19:18:11.771Z,16.60
2018-05-21T19:20:37.968Z,16.50
2018-05-21T19:23:04.935Z,16.40
2018-05-21T19:25:31.134Z,16.40
2018-05-21T19:27:58.094Z,16.30
2018-05-21T19:30:27.295Z,16.30
2018-05-21T19:32:53.519Z,16.20
2018-05-21T19:35:19.739Z,16.20
2018-05-21T19:37:46.707Z,16.10
2018-05-21T19:40:12.951Z,16.10
2018-05-21T19:42:39.151Z,16.00
2018-05-21T19:45:05.356Z,15.90
2018-05-21T19:47:32.347Z,15.80
2018-05-21T19:49:58.543Z,15.80
2018-05-21T19:52:25.501Z,15.70
2018-05-21T19:54:52.444Z,15.60
2018-05-21T19:57:19.412Z,15.50
2018-05-21T19:59:45.640Z,15.50
2018-05-21T20:02:12.007Z,15.50
2018-05-21T20:04:38.198Z,15.50
2018-05-21T20:07:04.419Z,15.50
2018-05-21T20:09:30.644Z,15.50
2018-05-21T20:11:56.843Z,15.50
2018-05-21T20:14:23.869Z,15.30
2018-05-21T20:16:50.060Z,15.30
2018-05-21T20:19:16.349Z,15.30
2018-05-21T20:21:42.519Z,15.20
2018-05-21T20:24:08.735Z,15.20
2018-05-21T20:26:34.926Z,15.20
2018-05-21T20:29:01.915Z,15.00
2018-05-21T20:31:28.212Z,15.00
2018-05-21T20:33:54.376Z,14.90
2018-05-21T20:36:20.587Z,14.80
2018-05-21T20:38:46.815Z,14.80
2018-05-21T20:41:13.776Z,14.70
2018-05-21T20:43:39.999Z,14.70
2018-05-21T20:46:06.199Z,14.60
2018-05-21T20:48:33.163Z,14.60
2018-05-21T20:51:00.095Z,14.60
2018-05-21T20:53:27.054Z,14.70
2018-05-21T20:55:54.148Z,14.70
2018-05-21T20:58:21.319Z,14.70
2018-05-21T21:00:47.520Z,14.60
2018-05-21T21:03:13.710Z,14.60
2018-05-21T21:05:40.695Z,14.60
2018-05-21T21:08:06.892Z,14.60
2018-05-21T21:10:33.920Z,14.50
2018-05-21T21:13:00.076Z,14.50
2018-05-21T21:15:26.299Z,14.50
2018-05-21T21:17:53.235Z,14.50
2018-05-21T21:20:20.187Z,14.50
2018-05-21T21:22:47.119Z,14.40
2018-05-21T21:25:14.075Z,14.40
2018-05-21T21:27:41.014Z,14.30
2018-05-21T21:30:07.988Z,14.30
2018-05-21T21:32:34.174Z,14.30
2018-05-21T21:35:00.395Z,14.20
2018-05-21T21:37:26.591Z,14.20
2018-05-21T21:39:52.813Z,14.10
2018-05-21T21:42:19.017Z,14.00
2018-05-21T21:44:45.978Z,13.70
2018-05-21T21:47:12.195Z,13.70
2018-05-21T21:49:38.395Z,13.60
2018-05-21T21:52:05.361Z,13.50
2018-05-21T21:54:32.298Z,13.40
2018-05-21T21:56:59.266Z,13.40
2018-05-21T21:59:25.475Z,13.30
2018-05-21T22:01:52.444Z,13.20
2018-05-21T22:04:18.685Z,13.10
2018-05-21T22:06:45.657Z,13.20
2018-05-21T22:09:11.861Z,13.10
2018-05-21T22:11:38.082Z,13.10
2018-05-21T22:14:04.283Z,13.10
2018-05-21T22:16:31.247Z,13.00
2018-05-21T22:18:57.448Z,13.00
2018-05-21T22:21:23.676Z,13.10
2018-05-21T22:23:50.624Z,13.10
2018-05-21T22:26:16.848Z,13.10
2018-05-21T22:28:43.046Z,13.00
2018-05-21T22:31:09.267Z,13.00
2018-05-21T22:33:35.459Z,13.00
2018-05-21T22:36:02.423Z,13.00
2018-05-21T22:38:28.623Z,13.00
2018-05-21T22:40:54.875Z,13.00
2018-05-21T22:43:21.144Z,13.00
2018-05-21T22:45:47.367Z,13.00
2018-05-21T22:48:13.563Z,13.00
2018-05-21T22:50:39.827Z,12.90
2018-05-21T22:53:06.035Z,12.90
2018-05-21T22:55:32.232Z,12.80
2018-05-21T22:57:59.197Z,12.70
2018-05-21T23:00:25.646Z,12.70
2018-05-21T23:02:51.862Z,12.70
2018-05-21T23:05:18.114Z,12.60
2018-05-21T23:07:44.390Z,12.60
2018-05-21T23:10:11.330Z,12.40
2018-05-21T23:12:37.555Z,12.40
2018-05-21T23:15:03.811Z,12.40
2018-05-21T23:17:30.041Z,12.30
2018-05-21T23:19:56.275Z,12.40
2018-05-21T23:22:34.883Z,12.30
2018-05-21T23:25:01.823Z,12.30
2018-05-21T23:27:28.788Z,12.30
2018-05-21T23:29:54.988Z,12.20
2018-05-21T23:32:21.954Z,12.20
2018-05-21T23:34:48.184Z,12.10
2018-05-21T23:37:15.147Z,12.10
2018-05-21T23:39:41.408Z,12.10
2018-05-21T23:42:07.608Z,12.10
2018-05-21T23:44:33.827Z,12.00
2018-05-21T23:47:00.033Z,12.00
2018-05-21T23:49:26.995Z,11.90
2018-05-21T23:51:53.198Z,11.90
2018-05-21T23:54:19.419Z,11.90
2018-05-21T23:56:45.618Z,11.90
2018-05-21T23:59:11.852Z,11.90
